sensor_id;sensor_type;location;lat;lon;timestamp;P1;durP1;ratioP1;P2;durP2;ratioP2
2211;SDS011;48849;48.758;9.158;2022-12-07T00:01:16;6.65;;;6.05;;
2211;SDS011;48849;48.758;9.158;2022-12-07T00:03:44;7.10;;;6.13;;
2211;SDS011;48849;48.758;9.158;2022-12-07T00:06:13;6.95;;;6.25;;
2211;SDS011;48849;48.758;9.158;2022-12-07T00:08:41;7.03;;;6.40;;
2211;SDS011;48849;48.758;9.158;2022-12-07T00:11:10;7.97;;;6.45;;
2211;SDS011;48849;48.758;9.158;2022-12-07T00:13:39;7.22;;;6.53;;
2211;SDS011;48849;48.758;9.158;2022-12-07T00:16:07;7.80;;;7.05;;
2211;SDS011;48849;48.758;9.158;2022-12-07T00:18:35;7.20;;;6.60;;
2211;SDS011;48849;48.758;9.158;2022-12-07T00:21:03;7.18;;;6.47;;
2211;SDS011;48849;48.758;9.158;2022-12-07T00:23:31;7.38;;;6.63;;
2211;SDS011;48849;48.758;9.158;2022-12-07T00:26:03;7.57;;;6.82;;
2211;SDS011;48849;48.758;9.158;2022-12-07T00:28:32;7.53;;;6.82;;
2211;SDS011;48849;48.758;9.158;2022-12-07T00:31:00;8.70;;;7.15;;
2211;SDS011;48849;48.758;9.158;2022-12-07T00:33:28;9.15;;;7.25;;
2211;SDS011;48849;48.758;9.158;2022-12-07T00:35:55;8.45;;;7.32;;
2211;SDS011;48849;48.758;9.158;2022-12-07T00:38:22;10.02;;;7.78;;
2211;SDS011;48849;48.758;9.158;2022-12-07T00:40:53;8.15;;;7.35;;
2211;SDS011;48849;48.758;9.158;2022-12-07T00:43:21;8.07;;;7.28;;
2211;SDS011;48849;48.758;9.158;2022-12-07T00:45:49;8.30;;;7.40;;
2211;SDS011;48849;48.758;9.158;2022-12-07T00:48:16;8.52;;;7.63;;
2211;SDS011;48849;48.758;9.158;2022-12-07T00:50:42;8.93;;;7.72;;
2211;SDS011;48849;48.758;9.158;2022-12-07T00:53:09;8.52;;;7.63;;
2211;SDS011;48849;48.758;9.158;2022-12-07T00:55:36;8.52;;;7.63;;
2211;SDS011;48849;48.758;9.158;2022-12-07T00:58:03;10.20;;;8.20;;
2211;SDS011;48849;48.758;9.158;2022-12-07T01:00:30;9.73;;;8.10;;
2211;SDS011;48849;48.758;9.158;2022-12-07T01:02:59;9.25;;;7.78;;
2211;SDS011;48849;48.758;9.158;2022-12-07T01:05:25;8.80;;;7.90;;
2211;SDS011;48849;48.758;9.158;2022-12-07T01:07:52;8.95;;;8.07;;
2211;SDS011;48849;48.758;9.158;2022-12-07T01:10:19;9.05;;;8.05;;
2211;SDS011;48849;48.758;9.158;2022-12-07T01:12:45;10.13;;;9.13;;
2211;SDS011;48849;48.758;9.158;2022-12-07T01:15:12;9.65;;;8.32;;
2211;SDS011;48849;48.758;9.158;2022-12-07T01:17:39;9.10;;;8.20;;
2211;SDS011;48849;48.758;9.158;2022-12-07T01:20:08;10.02;;;9.02;;
2211;SDS011;48849;48.758;9.158;2022-12-07T01:22:36;9.55;;;8.65;;
2211;SDS011;48849;48.758;9.158;2022-12-07T01:25:03;9.38;;;8.38;;
2211;SDS011;48849;48.758;9.158;2022-12-07T01:27:30;9.40;;;8.40;;
2211;SDS011;48849;48.758;9.158;2022-12-07T01:29:58;11.43;;;9.38;;
2211;SDS011;48849;48.758;9.158;2022-12-07T01:32:25;10.45;;;9.45;;
2211;SDS011;48849;48.758;9.158;2022-12-07T01:34:52;9.77;;;8.77;;
2211;SDS011;48849;48.758;9.158;2022-12-07T01:37:20;9.15;;;8.25;;
2211;SDS011;48849;48.758;9.158;2022-12-07T01:39:48;9.90;;;8.90;;
2211;SDS011;48849;48.758;9.158;2022-12-07T01:42:15;10.93;;;8.68;;
2211;SDS011;48849;48.758;9.158;2022-12-07T01:47:56;8.55;;;7.65;;
2211;SDS011;48849;48.758;9.158;2022-12-07T01:50:25;9.35;;;8.40;;
2211;SDS011;48849;48.758;9.158;2022-12-07T01:52:58;9.35;;;8.07;;
2211;SDS011;48849;48.758;9.158;2022-12-07T01:55:26;9.38;;;8.38;;
2211;SDS011;48849;48.758;9.158;2022-12-07T01:57:54;10.30;;;8.80;;
2211;SDS011;48849;48.758;9.158;2022-12-07T02:00:21;9.70;;;8.25;;
2211;SDS011;48849;48.758;9.158;2022-12-07T02:02:50;9.60;;;8.60;;
2211;SDS011;48849;48.758;9.158;2022-12-07T02:05:19;9.35;;;7.97;;
2211;SDS011;48849;48.758;9.158;2022-12-07T02:07:47;9.07;;;8.02;;
2211;SDS011;48849;48.758;9.158;2022-12-07T02:10:18;9.18;;;8.20;;
2211;SDS011;48849;48.758;9.158;2022-12-07T02:12:47;9.55;;;8.60;;
2211;SDS011;48849;48.758;9.158;2022-12-07T02:15:19;10.32;;;8.63;;
2211;SDS011;48849;48.758;9.158;2022-12-07T02:17:49;11.77;;;8.90;;
2211;SDS011;48849;48.758;9.158;2022-12-07T02:20:23;10.38;;;8.70;;
2211;SDS011;48849;48.758;9.158;2022-12-07T02:23:00;9.35;;;7.90;;
2211;SDS011;48849;48.758;9.158;2022-12-07T02:25:50;9.95;;;8.57;;
2211;SDS011;48849;48.758;9.158;2022-12-07T02:28:29;8.40;;;7.60;;
2211;SDS011;48849;48.758;9.158;2022-12-07T02:31:02;12.15;;;7.85;;
2211;SDS011;48849;48.758;9.158;2022-12-07T02:33:35;9.25;;;8.35;;
2211;SDS011;48849;48.758;9.158;2022-12-07T02:36:08;8.43;;;7.60;;
2211;SDS011;48849;48.758;9.158;2022-12-07T02:38:43;8.23;;;7.43;;
2211;SDS011;48849;48.758;9.158;2022-12-07T02:41:16;9.75;;;7.70;;
2211;SDS011;48849;48.758;9.158;2022-12-07T02:43:49;9.68;;;7.80;;
2211;SDS011;48849;48.758;9.158;2022-12-07T02:46:21;8.45;;;7.55;;
2211;SDS011;48849;48.758;9.158;2022-12-07T02:48:51;9.35;;;8.02;;
2211;SDS011;48849;48.758;9.158;2022-12-07T02:51:20;8.48;;;7.68;;
2211;SDS011;48849;48.758;9.158;2022-12-07T02:53:48;7.97;;;6.95;;
2211;SDS011;48849;48.758;9.158;2022-12-07T02:56:18;8.93;;;8.02;;
2211;SDS011;48849;48.758;9.158;2022-12-07T02:58:54;7.80;;;7.00;;
2211;SDS011;48849;48.758;9.158;2022-12-07T03:01:30;9.10;;;7.55;;
2211;SDS011;48849;48.758;9.158;2022-12-07T03:04:03;10.20;;;9.02;;
2211;SDS011;48849;48.758;9.158;2022-12-07T03:06:40;8.05;;;7.22;;
2211;SDS011;48849;48.758;9.158;2022-12-07T03:09:14;8.70;;;7.50;;
2211;SDS011;48849;48.758;9.158;2022-12-07T03:11:45;9.45;;;8.45;;
2211;SDS011;48849;48.758;9.158;2022-12-07T03:14:17;8.38;;;6.85;;
2211;SDS011;48849;48.758;9.158;2022-12-07T03:16:52;8.50;;;7.60;;
2211;SDS011;48849;48.758;9.158;2022-12-07T03:19:23;9.52;;;7.95;;
2211;SDS011;48849;48.758;9.158;2022-12-07T03:21:53;8.65;;;7.75;;
2211;SDS011;48849;48.758;9.158;2022-12-07T03:24:24;9.00;;;7.80;;
2211;SDS011;48849;48.758;9.158;2022-12-07T03:26:55;11.48;;;7.60;;
2211;SDS011;48849;48.758;9.158;2022-12-07T03:29:28;8.93;;;7.60;;
2211;SDS011;48849;48.758;9.158;2022-12-07T03:32:01;8.23;;;7.43;;
2211;SDS011;48849;48.758;9.158;2022-12-07T03:34:32;8.75;;;7.50;;
2211;SDS011;48849;48.758;9.158;2022-12-07T03:37:03;8.45;;;6.82;;
2211;SDS011;48849;48.758;9.158;2022-12-07T03:39:36;7.90;;;7.10;;
2211;SDS011;48849;48.758;9.158;2022-12-07T03:42:07;8.23;;;7.15;;
2211;SDS011;48849;48.758;9.158;2022-12-07T03:44:36;8.75;;;7.85;;
2211;SDS011;48849;48.758;9.158;2022-12-07T03:47:05;8.95;;;8.00;;
2211;SDS011;48849;48.758;9.158;2022-12-07T03:49:40;8.15;;;7.35;;
2211;SDS011;48849;48.758;9.158;2022-12-07T03:52:12;9.07;;;7.63;;
2211;SDS011;48849;48.758;9.158;2022-12-07T03:54:44;9.07;;;8.23;;
2211;SDS011;48849;48.758;9.158;2022-12-07T03:57:15;6.93;;;6.22;;
2211;SDS011;48849;48.758;9.158;2022-12-07T03:59:43;9.70;;;7.90;;
2211;SDS011;48849;48.758;9.158;2022-12-07T04:02:12;8.52;;;7.55;;
2211;SDS011;48849;48.758;9.158;2022-12-07T04:04:40;8.32;;;6.40;;
2211;SDS011;48849;48.758;9.158;2022-12-07T04:07:08;9.52;;;7.97;;
2211;SDS011;48849;48.758;9.158;2022-12-07T04:09:34;9.38;;;8.10;;
2211;SDS011;48849;48.758;9.158;2022-12-07T04:12:01;9.20;;;7.97;;
2211;SDS011;48849;48.758;9.158;2022-12-07T04:14:28;10.55;;;8.20;;
2211;SDS011;48849;48.758;9.158;2022-12-07T04:16:55;8.77;;;7.25;;
2211;SDS011;48849;48.758;9.158;2022-12-07T04:19:25;8.02;;;7.28;;
2211;SDS011;48849;48.758;9.158;2022-12-07T04:21:53;10.35;;;7.70;;
2211;SDS011;48849;48.758;9.158;2022-12-07T04:24:20;8.43;;;7.10;;
2211;SDS011;48849;48.758;9.158;2022-12-07T04:26:47;8.93;;;7.55;;
2211;SDS011;48849;48.758;9.158;2022-12-07T04:29:14;8.38;;;7.57;;
2211;SDS011;48849;48.758;9.158;2022-12-07T04:31:41;8.10;;;7.30;;
2211;SDS011;48849;48.758;9.158;2022-12-07T04:34:09;8.60;;;7.32;;
2211;SDS011;48849;48.758;9.158;2022-12-07T04:36:37;9.00;;;8.10;;
2211;SDS011;48849;48.758;9.158;2022-12-07T04:39:04;8.30;;;7.28;;
2211;SDS011;48849;48.758;9.158;2022-12-07T04:41:32;8.48;;;7.47;;
2211;SDS011;48849;48.758;9.158;2022-12-07T04:44:00;8.30;;;7.50;;
2211;SDS011;48849;48.758;9.158;2022-12-07T04:46:29;7.38;;;6.55;;
2211;SDS011;48849;48.758;9.158;2022-12-07T04:48:57;6.57;;;5.95;;
2211;SDS011;48849;48.758;9.158;2022-12-07T04:51:25;6.10;;;5.60;;
2211;SDS011;48849;48.758;9.158;2022-12-07T04:53:55;6.88;;;6.18;;
2211;SDS011;48849;48.758;9.158;2022-12-07T04:56:22;7.05;;;6.35;;
2211;SDS011;48849;48.758;9.158;2022-12-07T04:58:50;6.60;;;6.00;;
2211;SDS011;48849;48.758;9.158;2022-12-07T05:01:18;6.00;;;5.43;;
2211;SDS011;48849;48.758;9.158;2022-12-07T05:03:45;6.40;;;5.53;;
2211;SDS011;48849;48.758;9.158;2022-12-07T05:06:12;7.13;;;5.70;;
2211;SDS011;48849;48.758;9.158;2022-12-07T05:08:39;5.22;;;4.72;;
2211;SDS011;48849;48.758;9.158;2022-12-07T05:11:08;6.53;;;4.78;;
2211;SDS011;48849;48.758;9.158;2022-12-07T05:13:55;6.05;;;5.32;;
2211;SDS011;48849;48.758;9.158;2022-12-07T05:16:22;5.50;;;5.00;;
2211;SDS011;48849;48.758;9.158;2022-12-07T05:18:49;7.18;;;5.20;;
2211;SDS011;48849;48.758;9.158;2022-12-07T05:21:16;6.28;;;5.30;;
2211;SDS011;48849;48.758;9.158;2022-12-07T05:23:42;5.75;;;5.10;;
2211;SDS011;48849;48.758;9.158;2022-12-07T05:26:10;7.65;;;5.40;;
2211;SDS011;48849;48.758;9.158;2022-12-07T05:28:37;9.20;;;5.70;;
2211;SDS011;48849;48.758;9.158;2022-12-07T05:31:04;5.93;;;5.40;;
2211;SDS011;48849;48.758;9.158;2022-12-07T05:33:31;5.53;;;4.88;;
2211;SDS011;48849;48.758;9.158;2022-12-07T05:35:58;6.20;;;5.60;;
2211;SDS011;48849;48.758;9.158;2022-12-07T05:38:30;5.40;;;4.90;;
2211;SDS011;48849;48.758;9.158;2022-12-07T05:40:59;5.10;;;4.60;;
2211;SDS011;48849;48.758;9.158;2022-12-07T05:43:28;5.75;;;5.15;;
2211;SDS011;48849;48.758;9.158;2022-12-07T05:45:55;5.30;;;4.57;;
2211;SDS011;48849;48.758;9.158;2022-12-07T05:48:22;7.70;;;4.93;;
2211;SDS011;48849;48.758;9.158;2022-12-07T05:50:49;6.00;;;5.40;;
2211;SDS011;48849;48.758;9.158;2022-12-07T05:53:17;5.70;;;5.10;;
2211;SDS011;48849;48.758;9.158;2022-12-07T05:55:44;7.72;;;5.57;;
2211;SDS011;48849;48.758;9.158;2022-12-07T05:58:11;6.05;;;5.45;;
2211;SDS011;48849;48.758;9.158;2022-12-07T06:00:56;7.93;;;5.38;;
2211;SDS011;48849;48.758;9.158;2022-12-07T06:03:23;5.90;;;5.35;;
2211;SDS011;48849;48.758;9.158;2022-12-07T06:05:51;6.70;;;5.47;;
2211;SDS011;48849;48.758;9.158;2022-12-07T06:08:18;6.32;;;5.72;;
2211;SDS011;48849;48.758;9.158;2022-12-07T06:10:46;6.50;;;5.90;;
2211;SDS011;48849;48.758;9.158;2022-12-07T06:13:34;5.90;;;5.28;;
2211;SDS011;48849;48.758;9.158;2022-12-07T06:16:01;6.30;;;5.70;;
2211;SDS011;48849;48.758;9.158;2022-12-07T06:18:28;6.68;;;5.22;;
2211;SDS011;48849;48.758;9.158;2022-12-07T06:20:55;6.15;;;5.30;;
2211;SDS011;48849;48.758;9.158;2022-12-07T06:23:22;5.45;;;4.95;;
2211;SDS011;48849;48.758;9.158;2022-12-07T06:25:48;6.10;;;5.50;;
2211;SDS011;48849;48.758;9.158;2022-12-07T06:28:15;6.40;;;5.60;;
2211;SDS011;48849;48.758;9.158;2022-12-07T06:30:42;6.30;;;5.70;;
2211;SDS011;48849;48.758;9.158;2022-12-07T06:33:10;7.45;;;5.22;;
2211;SDS011;48849;48.758;9.158;2022-12-07T06:35:36;13.27;;;5.80;;
2211;SDS011;48849;48.758;9.158;2022-12-07T06:38:03;6.43;;;5.32;;
2211;SDS011;48849;48.758;9.158;2022-12-07T06:40:30;9.70;;;6.03;;
2211;SDS011;48849;48.758;9.158;2022-12-07T06:42:57;5.88;;;5.28;;
2211;SDS011;48849;48.758;9.158;2022-12-07T06:45:23;6.53;;;5.10;;
2211;SDS011;48849;48.758;9.158;2022-12-07T06:47:50;6.68;;;5.95;;
2211;SDS011;48849;48.758;9.158;2022-12-07T06:50:18;6.20;;;4.97;;
2211;SDS011;48849;48.758;9.158;2022-12-07T06:52:45;6.30;;;5.07;;
2211;SDS011;48849;48.758;9.158;2022-12-07T06:55:11;5.68;;;5.10;;
2211;SDS011;48849;48.758;9.158;2022-12-07T06:57:38;6.43;;;5.35;;
2211;SDS011;48849;48.758;9.158;2022-12-07T07:00:05;6.30;;;5.70;;
2211;SDS011;48849;48.758;9.158;2022-12-07T07:02:33;8.25;;;6.13;;
2211;SDS011;48849;48.758;9.158;2022-12-07T07:04:59;5.45;;;4.85;;
2211;SDS011;48849;48.758;9.158;2022-12-07T07:07:27;5.20;;;4.70;;
2211;SDS011;48849;48.758;9.158;2022-12-07T07:09:54;7.47;;;6.20;;
2211;SDS011;48849;48.758;9.158;2022-12-07T07:12:21;10.68;;;5.60;;
2211;SDS011;48849;48.758;9.158;2022-12-07T07:14:48;8.55;;;6.60;;
2211;SDS011;48849;48.758;9.158;2022-12-07T07:17:14;6.60;;;5.90;;
2211;SDS011;48849;48.758;9.158;2022-12-07T07:19:41;6.35;;;5.75;;
2211;SDS011;48849;48.758;9.158;2022-12-07T07:22:08;9.40;;;7.68;;
2211;SDS011;48849;48.758;9.158;2022-12-07T07:24:36;6.55;;;5.95;;
2211;SDS011;48849;48.758;9.158;2022-12-07T07:27:03;6.90;;;5.55;;
2211;SDS011;48849;48.758;9.158;2022-12-07T07:29:29;6.32;;;5.72;;
2211;SDS011;48849;48.758;9.158;2022-12-07T07:31:56;6.65;;;5.93;;
2211;SDS011;48849;48.758;9.158;2022-12-07T07:34:23;6.22;;;5.63;;
2211;SDS011;48849;48.758;9.158;2022-12-07T07:36:49;6.28;;;5.45;;
2211;SDS011;48849;48.758;9.158;2022-12-07T07:39:16;6.25;;;5.60;;
2211;SDS011;48849;48.758;9.158;2022-12-07T07:41:44;6.70;;;6.05;;
2211;SDS011;48849;48.758;9.158;2022-12-07T07:44:12;10.18;;;5.15;;
2211;SDS011;48849;48.758;9.158;2022-12-07T07:46:39;6.95;;;6.10;;
2211;SDS011;48849;48.758;9.158;2022-12-07T07:49:06;6.07;;;5.47;;
2211;SDS011;48849;48.758;9.158;2022-12-07T07:51:32;6.90;;;5.70;;
2211;SDS011;48849;48.758;9.158;2022-12-07T07:53:59;7.03;;;6.25;;
2211;SDS011;48849;48.758;9.158;2022-12-07T07:56:26;6.50;;;5.85;;
2211;SDS011;48849;48.758;9.158;2022-12-07T07:58:54;7.63;;;5.35;;
2211;SDS011;48849;48.758;9.158;2022-12-07T08:01:21;5.75;;;5.25;;
2211;SDS011;48849;48.758;9.158;2022-12-07T08:03:48;6.70;;;6.00;;
2211;SDS011;48849;48.758;9.158;2022-12-07T08:06:15;6.15;;;5.55;;
2211;SDS011;48849;48.758;9.158;2022-12-07T08:08:41;7.40;;;5.55;;
2211;SDS011;48849;48.758;9.158;2022-12-07T08:11:08;6.00;;;5.40;;
2211;SDS011;48849;48.758;9.158;2022-12-07T08:13:36;7.22;;;6.38;;
2211;SDS011;48849;48.758;9.158;2022-12-07T08:16:05;6.68;;;5.97;;
2211;SDS011;48849;48.758;9.158;2022-12-07T08:18:34;7.53;;;6.05;;
2211;SDS011;48849;48.758;9.158;2022-12-07T08:21:01;10.02;;;6.30;;
2211;SDS011;48849;48.758;9.158;2022-12-07T08:23:30;7.00;;;6.30;;
2211;SDS011;48849;48.758;9.158;2022-12-07T08:25:59;9.15;;;6.30;;
2211;SDS011;48849;48.758;9.158;2022-12-07T08:28:26;7.15;;;6.43;;
2211;SDS011;48849;48.758;9.158;2022-12-07T08:30:57;7.35;;;6.30;;
2211;SDS011;48849;48.758;9.158;2022-12-07T08:33:26;6.03;;;5.43;;
2211;SDS011;48849;48.758;9.158;2022-12-07T08:35:53;7.10;;;5.55;;
2211;SDS011;48849;48.758;9.158;2022-12-07T08:38:20;8.32;;;5.43;;
2211;SDS011;48849;48.758;9.158;2022-12-07T08:40:52;7.85;;;7.00;;
2211;SDS011;48849;48.758;9.158;2022-12-07T08:43:20;7.22;;;6.53;;
2211;SDS011;48849;48.758;9.158;2022-12-07T08:45:47;7.30;;;6.30;;
2211;SDS011;48849;48.758;9.158;2022-12-07T08:48:17;6.82;;;5.45;;
2211;SDS011;48849;48.758;9.158;2022-12-07T08:50:48;6.63;;;5.63;;
2211;SDS011;48849;48.758;9.158;2022-12-07T08:53:15;8.70;;;6.05;;
2211;SDS011;48849;48.758;9.158;2022-12-07T08:55:42;6.05;;;5.45;;
2211;SDS011;48849;48.758;9.158;2022-12-07T08:58:10;5.50;;;5.00;;
2211;SDS011;48849;48.758;9.158;2022-12-07T09:00:36;6.90;;;5.68;;
2211;SDS011;48849;48.758;9.158;2022-12-07T09:03:03;7.95;;;5.45;;
2211;SDS011;48849;48.758;9.158;2022-12-07T09:05:30;7.75;;;6.55;;
2211;SDS011;48849;48.758;9.158;2022-12-07T09:08:01;5.80;;;5.18;;
2211;SDS011;48849;48.758;9.158;2022-12-07T09:10:28;5.05;;;4.53;;
2211;SDS011;48849;48.758;9.158;2022-12-07T09:12:54;5.80;;;5.20;;
2211;SDS011;48849;48.758;9.158;2022-12-07T09:15:25;7.85;;;4.97;;
2211;SDS011;48849;48.758;9.158;2022-12-07T09:17:52;5.05;;;4.55;;
2211;SDS011;48849;48.758;9.158;2022-12-07T09:20:19;6.50;;;5.80;;
2211;SDS011;48849;48.758;9.158;2022-12-07T09:22:46;5.78;;;5.28;;
2211;SDS011;48849;48.758;9.158;2022-12-07T09:25:14;6.60;;;5.68;;
2211;SDS011;48849;48.758;9.158;2022-12-07T09:27:41;6.05;;;5.13;;
2211;SDS011;48849;48.758;9.158;2022-12-07T09:30:08;9.85;;;6.03;;
2211;SDS011;48849;48.758;9.158;2022-12-07T09:32:35;7.75;;;5.20;;
2211;SDS011;48849;48.758;9.158;2022-12-07T09:35:02;5.45;;;4.47;;
2211;SDS011;48849;48.758;9.158;2022-12-07T09:37:28;5.22;;;4.40;;
2211;SDS011;48849;48.758;9.158;2022-12-07T09:39:56;4.70;;;4.28;;
2211;SDS011;48849;48.758;9.158;2022-12-07T09:42:27;5.07;;;4.57;;
2211;SDS011;48849;48.758;9.158;2022-12-07T09:44:58;4.78;;;4.28;;
2211;SDS011;48849;48.758;9.158;2022-12-07T09:47:26;5.15;;;3.90;;
2211;SDS011;48849;48.758;9.158;2022-12-07T09:49:53;6.10;;;5.15;;
2211;SDS011;48849;48.758;9.158;2022-12-07T09:52:25;4.80;;;4.32;;
2211;SDS011;48849;48.758;9.158;2022-12-07T09:54:53;4.07;;;3.67;;
2211;SDS011;48849;48.758;9.158;2022-12-07T09:57:21;5.32;;;4.03;;
2211;SDS011;48849;48.758;9.158;2022-12-07T09:59:54;4.50;;;4.10;;
2211;SDS011;48849;48.758;9.158;2022-12-07T10:02:28;4.40;;;4.00;;
2211;SDS011;48849;48.758;9.158;2022-12-07T10:05:02;4.93;;;4.43;;
2211;SDS011;48849;48.758;9.158;2022-12-07T10:07:31;5.20;;;4.70;;
2211;SDS011;48849;48.758;9.158;2022-12-07T10:09:57;6.50;;;4.70;;
2211;SDS011;48849;48.758;9.158;2022-12-07T10:12:24;5.70;;;4.90;;
2211;SDS011;48849;48.758;9.158;2022-12-07T10:14:54;4.45;;;4.05;;
2211;SDS011;48849;48.758;9.158;2022-12-07T10:17:26;4.57;;;4.15;;
2211;SDS011;48849;48.758;9.158;2022-12-07T10:20:08;4.10;;;3.80;;
2211;SDS011;48849;48.758;9.158;2022-12-07T10:22:48;3.55;;;3.08;;
2211;SDS011;48849;48.758;9.158;2022-12-07T10:25:21;4.75;;;4.30;;
2211;SDS011;48849;48.758;9.158;2022-12-07T10:27:56;5.75;;;5.00;;
2211;SDS011;48849;48.758;9.158;2022-12-07T10:30:25;6.57;;;5.47;;
2211;SDS011;48849;48.758;9.158;2022-12-07T10:32:52;4.25;;;3.70;;
2211;SDS011;48849;48.758;9.158;2022-12-07T10:35:21;4.00;;;3.65;;
2211;SDS011;48849;48.758;9.158;2022-12-07T10:37:49;3.65;;;3.35;;
2211;SDS011;48849;48.758;9.158;2022-12-07T10:40:24;4.18;;;3.78;;
2211;SDS011;48849;48.758;9.158;2022-12-07T10:43:00;4.70;;;3.75;;
2211;SDS011;48849;48.758;9.158;2022-12-07T10:45:29;4.63;;;3.10;;
2211;SDS011;48849;48.758;9.158;2022-12-07T10:47:58;3.75;;;3.45;;
2211;SDS011;48849;48.758;9.158;2022-12-07T10:50:42;4.60;;;3.97;;
2211;SDS011;48849;48.758;9.158;2022-12-07T10:53:21;3.80;;;3.50;;
2211;SDS011;48849;48.758;9.158;2022-12-07T10:56:13;4.25;;;3.85;;
2211;SDS011;48849;48.758;9.158;2022-12-07T10:59:06;3.65;;;3.35;;
2211;SDS011;48849;48.758;9.158;2022-12-07T11:02:02;4.38;;;3.63;;
2211;SDS011;48849;48.758;9.158;2022-12-07T11:04:43;3.60;;;3.30;;
2211;SDS011;48849;48.758;9.158;2022-12-07T11:07:23;5.35;;;4.40;;
2211;SDS011;48849;48.758;9.158;2022-12-07T11:10:02;3.95;;;3.65;;
2211;SDS011;48849;48.758;9.158;2022-12-07T11:12:39;3.90;;;3.53;;
2211;SDS011;48849;48.758;9.158;2022-12-07T11:15:24;3.63;;;3.33;;
2211;SDS011;48849;48.758;9.158;2022-12-07T11:17:58;3.88;;;3.47;;
2211;SDS011;48849;48.758;9.158;2022-12-07T11:20:37;3.90;;;3.50;;
2211;SDS011;48849;48.758;9.158;2022-12-07T11:23:12;4.45;;;3.63;;
2211;SDS011;48849;48.758;9.158;2022-12-07T11:25:47;3.45;;;3.15;;
2211;SDS011;48849;48.758;9.158;2022-12-07T11:28:22;3.10;;;2.80;;
2211;SDS011;48849;48.758;9.158;2022-12-07T11:31:00;4.68;;;3.20;;
2211;SDS011;48849;48.758;9.158;2022-12-07T11:33:37;4.25;;;3.00;;
2211;SDS011;48849;48.758;9.158;2022-12-07T11:36:13;2.70;;;2.47;;
2211;SDS011;48849;48.758;9.158;2022-12-07T11:38:54;3.25;;;2.95;;
2211;SDS011;48849;48.758;9.158;2022-12-07T11:41:23;3.40;;;2.97;;
2211;SDS011;48849;48.758;9.158;2022-12-07T11:43:55;2.53;;;2.33;;
2211;SDS011;48849;48.758;9.158;2022-12-07T11:46:25;3.60;;;2.72;;
2211;SDS011;48849;48.758;9.158;2022-12-07T11:48:57;4.22;;;3.75;;
2211;SDS011;48849;48.758;9.158;2022-12-07T11:51:28;2.80;;;2.60;;
2211;SDS011;48849;48.758;9.158;2022-12-07T11:53:59;3.30;;;2.70;;
2211;SDS011;48849;48.758;9.158;2022-12-07T11:56:29;3.92;;;2.38;;
2211;SDS011;48849;48.758;9.158;2022-12-07T11:59:02;3.22;;;2.63;;
2211;SDS011;48849;48.758;9.158;2022-12-07T12:01:50;3.42;;;3.13;;
2211;SDS011;48849;48.758;9.158;2022-12-07T12:04:27;4.32;;;2.75;;
2211;SDS011;48849;48.758;9.158;2022-12-07T12:06:58;2.63;;;2.42;;
2211;SDS011;48849;48.758;9.158;2022-12-07T12:09:26;2.35;;;2.15;;
2211;SDS011;48849;48.758;9.158;2022-12-07T12:12:01;2.75;;;2.55;;
2211;SDS011;48849;48.758;9.158;2022-12-07T12:14:50;2.35;;;2.25;;
2211;SDS011;48849;48.758;9.158;2022-12-07T12:17:35;2.42;;;2.30;;
2211;SDS011;48849;48.758;9.158;2022-12-07T12:20:19;4.00;;;2.63;;
2211;SDS011;48849;48.758;9.158;2022-12-07T12:22:50;2.45;;;2.00;;
2211;SDS011;48849;48.758;9.158;2022-12-07T12:25:22;2.78;;;2.40;;
2211;SDS011;48849;48.758;9.158;2022-12-07T12:27:51;2.53;;;2.33;;
2211;SDS011;48849;48.758;9.158;2022-12-07T12:30:32;2.80;;;2.47;;
2211;SDS011;48849;48.758;9.158;2022-12-07T12:33:02;4.03;;;3.70;;
2211;SDS011;48849;48.758;9.158;2022-12-07T12:35:33;4.78;;;4.38;;
2211;SDS011;48849;48.758;9.158;2022-12-07T12:38:24;5.07;;;4.57;;
2211;SDS011;48849;48.758;9.158;2022-12-07T12:40:55;6.00;;;4.55;;
2211;SDS011;48849;48.758;9.158;2022-12-07T12:49:30;5.53;;;5.03;;
2211;SDS011;48849;48.758;9.158;2022-12-07T12:52:02;7.55;;;4.90;;
2211;SDS011;48849;48.758;9.158;2022-12-07T12:55:13;5.00;;;4.60;;
2211;SDS011;48849;48.758;9.158;2022-12-07T12:57:45;5.57;;;5.07;;
2211;SDS011;48849;48.758;9.158;2022-12-07T13:00:17;5.22;;;4.72;;
2211;SDS011;48849;48.758;9.158;2022-12-07T13:02:47;6.05;;;4.60;;
2211;SDS011;48849;48.758;9.158;2022-12-07T13:05:17;4.15;;;3.75;;
2211;SDS011;48849;48.758;9.158;2022-12-07T13:08:02;4.00;;;3.67;;
2211;SDS011;48849;48.758;9.158;2022-12-07T13:10:41;4.00;;;3.70;;
2211;SDS011;48849;48.758;9.158;2022-12-07T13:13:28;4.30;;;3.90;;
2211;SDS011;48849;48.758;9.158;2022-12-07T13:18:57;3.85;;;3.40;;
2211;SDS011;48849;48.758;9.158;2022-12-07T13:21:42;3.65;;;3.38;;
2211;SDS011;48849;48.758;9.158;2022-12-07T13:24:11;3.60;;;3.30;;
2211;SDS011;48849;48.758;9.158;2022-12-07T13:26:41;3.80;;;3.35;;
2211;SDS011;48849;48.758;9.158;2022-12-07T13:29:11;4.25;;;3.80;;
2211;SDS011;48849;48.758;9.158;2022-12-07T13:31:39;4.15;;;3.63;;
2211;SDS011;48849;48.758;9.158;2022-12-07T13:36:56;3.70;;;3.10;;
2211;SDS011;48849;48.758;9.158;2022-12-07T13:39:26;3.80;;;3.50;;
2211;SDS011;48849;48.758;9.158;2022-12-07T13:41:54;3.80;;;3.50;;
2211;SDS011;48849;48.758;9.158;2022-12-07T13:44:23;3.13;;;2.92;;
2211;SDS011;48849;48.758;9.158;2022-12-07T13:46:57;3.47;;;3.25;;
2211;SDS011;48849;48.758;9.158;2022-12-07T13:49:27;3.63;;;3.10;;
2211;SDS011;48849;48.758;9.158;2022-12-07T13:52:06;3.15;;;2.90;;
2211;SDS011;48849;48.758;9.158;2022-12-07T13:54:44;2.70;;;2.50;;
2211;SDS011;48849;48.758;9.158;2022-12-07T13:57:13;3.33;;;3.10;;
2211;SDS011;48849;48.758;9.158;2022-12-07T13:59:40;5.75;;;3.25;;
2211;SDS011;48849;48.758;9.158;2022-12-07T14:02:16;3.50;;;3.05;;
2211;SDS011;48849;48.758;9.158;2022-12-07T14:04:46;2.70;;;2.50;;
2211;SDS011;48849;48.758;9.158;2022-12-07T14:07:18;4.00;;;2.90;;
2211;SDS011;48849;48.758;9.158;2022-12-07T14:09:54;3.92;;;3.10;;
2211;SDS011;48849;48.758;9.158;2022-12-07T14:12:23;3.45;;;3.15;;
2211;SDS011;48849;48.758;9.158;2022-12-07T14:14:51;3.67;;;3.28;;
2211;SDS011;48849;48.758;9.158;2022-12-07T14:17:20;3.65;;;3.35;;
2211;SDS011;48849;48.758;9.158;2022-12-07T14:19:49;4.05;;;3.75;;
2211;SDS011;48849;48.758;9.158;2022-12-07T14:22:21;3.95;;;3.15;;
2211;SDS011;48849;48.758;9.158;2022-12-07T14:24:50;3.15;;;2.95;;
2211;SDS011;48849;48.758;9.158;2022-12-07T14:27:19;5.15;;;3.08;;
2211;SDS011;48849;48.758;9.158;2022-12-07T14:29:47;3.88;;;3.40;;
2211;SDS011;48849;48.758;9.158;2022-12-07T14:32:19;3.72;;;3.30;;
2211;SDS011;48849;48.758;9.158;2022-12-07T14:34:53;3.90;;;3.55;;
2211;SDS011;48849;48.758;9.158;2022-12-07T14:37:35;3.58;;;3.22;;
2211;SDS011;48849;48.758;9.158;2022-12-07T14:40:03;3.72;;;3.30;;
2211;SDS011;48849;48.758;9.158;2022-12-07T14:42:33;3.92;;;3.60;;
2211;SDS011;48849;48.758;9.158;2022-12-07T14:45:01;4.47;;;4.07;;
2211;SDS011;48849;48.758;9.158;2022-12-07T14:47:27;4.65;;;3.95;;
2211;SDS011;48849;48.758;9.158;2022-12-07T14:49:54;3.92;;;3.53;;
2211;SDS011;48849;48.758;9.158;2022-12-07T14:52:22;4.50;;;4.10;;
2211;SDS011;48849;48.758;9.158;2022-12-07T14:54:51;4.97;;;4.47;;
2211;SDS011;48849;48.758;9.158;2022-12-07T14:57:19;4.40;;;4.00;;
2211;SDS011;48849;48.758;9.158;2022-12-07T14:59:47;5.82;;;5.05;;
2211;SDS011;48849;48.758;9.158;2022-12-07T15:02:14;4.18;;;3.85;;
2211;SDS011;48849;48.758;9.158;2022-12-07T15:04:41;5.82;;;3.92;;
2211;SDS011;48849;48.758;9.158;2022-12-07T15:07:10;5.18;;;4.68;;
2211;SDS011;48849;48.758;9.158;2022-12-07T15:09:42;5.40;;;4.90;;
2211;SDS011;48849;48.758;9.158;2022-12-07T15:12:09;6.22;;;5.10;;
2211;SDS011;48849;48.758;9.158;2022-12-07T15:14:36;5.37;;;4.87;;
2211;SDS011;48849;48.758;9.158;2022-12-07T15:17:04;5.40;;;5.00;;
2211;SDS011;48849;48.758;9.158;2022-12-07T15:19:31;5.28;;;4.78;;
2211;SDS011;48849;48.758;9.158;2022-12-07T15:21:58;5.30;;;4.80;;
2211;SDS011;48849;48.758;9.158;2022-12-07T15:24:25;5.70;;;4.88;;
2211;SDS011;48849;48.758;9.158;2022-12-07T15:26:52;5.18;;;4.63;;
2211;SDS011;48849;48.758;9.158;2022-12-07T15:29:19;5.13;;;4.60;;
2211;SDS011;48849;48.758;9.158;2022-12-07T15:31:45;5.35;;;4.57;;
2211;SDS011;48849;48.758;9.158;2022-12-07T15:34:15;6.22;;;5.28;;